createdAt,value
2024-03-16T00:02:04.823Z,79.86
2024-03-16T00:04:31.552Z,79.39
2024-03-16T00:06:59.273Z,79.35
2024-03-16T00:09:26.042Z,79.06
2024-03-16T00:11:52.870Z,79.22
2024-03-16T00:14:19.315Z,79.33
2024-03-16T00:16:45.771Z,79.04
2024-03-16T00:19:12.477Z,79.08
2024-03-16T00:21:39.069Z,78.70
2024-03-16T00:24:08.350Z,79.03
2024-03-16T00:26:34.979Z,78.86
2024-03-16T00:29:01.578Z,78.52
2024-03-16T00:31:28.509Z,78.53
2024-03-16T00:33:55.014Z,77.92
2024-03-16T00:36:23.901Z,77.84
2024-03-16T00:38:51.783Z,78.10
2024-03-16T00:41:18.190Z,77.70
2024-03-16T00:43:44.850Z,77.56
2024-03-16T00:46:11.528Z,77.33
2024-03-16T00:48:38.304Z,77.29
2024-03-16T00:51:04.877Z,77.28
2024-03-16T00:53:31.442Z,77.19
2024-03-16T00:55:58.603Z,76.88
2024-03-16T00:58:25.056Z,76.61
2024-03-16T01:00:52.909Z,76.76
2024-03-16T01:03:19.588Z,76.91
2024-03-16T01:05:52.078Z,76.69
2024-03-16T01:08:18.717Z,76.56
2024-03-16T01:10:45.435Z,76.40
2024-03-16T01:13:12.028Z,76.24
2024-03-16T01:15:38.548Z,76.38
2024-03-16T01:18:05.156Z,76.68
2024-03-16T01:20:31.779Z,76.50
2024-03-16T01:22:59.797Z,76.48
2024-03-16T01:25:26.376Z,76.70
2024-03-16T01:27:52.799Z,76.54
2024-03-16T01:30:22.573Z,76.69
2024-03-16T01:32:49.025Z,76.75
2024-03-16T01:35:15.656Z,76.77
2024-03-16T01:37:42.160Z,76.89
2024-03-16T01:40:10.901Z,76.95
2024-03-16T01:42:37.773Z,76.86
2024-03-16T01:45:11.591Z,76.93
2024-03-16T01:47:38.910Z,77.20
2024-03-16T01:50:06.074Z,77.44
2024-03-16T01:52:33.762Z,77.56
2024-03-16T01:55:00.593Z,77.55
2024-03-16T01:57:27.160Z,77.57
2024-03-16T01:59:53.683Z,77.83
2024-03-16T02:02:34.896Z,77.82
2024-03-16T02:05:02.660Z,77.79
2024-03-16T02:07:29.037Z,77.91
2024-03-16T02:09:55.717Z,77.86
2024-03-16T02:12:22.365Z,77.91
2024-03-16T02:14:49.054Z,78.02
2024-03-16T02:17:15.503Z,78.08
2024-03-16T02:19:41.928Z,78.15
2024-03-16T02:22:10.630Z,78.25
2024-03-16T02:24:37.385Z,78.19
2024-03-16T02:27:04.117Z,78.40
2024-03-16T02:29:33.889Z,78.65
2024-03-16T02:32:00.629Z,78.68
2024-03-16T02:34:27.289Z,78.66
2024-03-16T02:36:54.001Z,78.53
2024-03-16T02:39:23.372Z,78.44
2024-03-16T02:41:49.764Z,78.25
2024-03-16T02:44:16.351Z,78.21
2024-03-16T02:46:42.808Z,78.34
2024-03-16T02:49:09.260Z,78.24
2024-03-16T02:51:35.934Z,78.37
2024-03-16T02:54:02.957Z,78.29
2024-03-16T02:56:29.540Z,78.30
2024-03-16T02:58:56.007Z,78.48
2024-03-16T03:01:23.047Z,78.63
2024-03-16T03:03:49.693Z,78.53
2024-03-16T03:06:16.319Z,78.64
2024-03-16T03:08:44.762Z,78.75
2024-03-16T03:11:12.579Z,78.95
2024-03-16T03:13:39.140Z,78.97
2024-03-16T03:16:05.832Z,78.91
2024-03-16T03:18:32.299Z,79.09
2024-03-16T03:20:59.166Z,79.05
2024-03-16T03:23:25.995Z,79.00
2024-03-16T03:25:53.387Z,79.03
2024-03-16T03:28:20.095Z,78.93
2024-03-16T03:30:49.913Z,79.02
2024-03-16T03:33:16.481Z,79.04
2024-03-16T03:35:43.092Z,79.10
2024-03-16T03:38:09.580Z,79.09
2024-03-16T03:40:36.160Z,79.10
2024-03-16T03:43:02.696Z,79.25
2024-03-16T03:45:39.452Z,79.39
2024-03-16T03:48:26.712Z,79.61
2024-03-16T03:50:57.983Z,79.75
2024-03-16T03:53:26.688Z,79.75
2024-03-16T03:55:54.191Z,79.74
2024-03-16T03:58:21.755Z,79.96
2024-03-16T04:00:49.450Z,79.88
2024-03-16T04:03:16.893Z,79.88
2024-03-16T04:05:47.016Z,80.14
2024-03-16T04:08:13.431Z,80.34
2024-03-16T04:10:40.192Z,80.29
2024-03-16T04:13:06.667Z,80.12
2024-03-16T04:15:33.219Z,80.35
2024-03-16T04:17:59.937Z,80.44
2024-03-16T04:20:27.038Z,80.57
2024-03-16T04:22:53.949Z,80.79
2024-03-16T04:25:22.473Z,81.03
2024-03-16T04:27:49.812Z,81.02
2024-03-16T04:30:16.420Z,80.85
2024-03-16T04:32:43.065Z,81.12
2024-03-16T04:35:09.733Z,81.24
2024-03-16T04:37:36.257Z,81.31
2024-03-16T04:40:07.037Z,81.55
2024-03-16T04:42:33.815Z,81.70
2024-03-16T04:45:00.940Z,81.51
2024-03-16T04:47:27.609Z,81.69
2024-03-16T04:49:54.489Z,81.88
2024-03-16T04:52:20.925Z,81.80
2024-03-16T04:54:47.560Z,82.00
2024-03-16T04:57:14.227Z,82.32
2024-03-16T04:59:40.975Z,82.26
2024-03-16T05:02:08.186Z,82.16
2024-03-16T05:04:35.062Z,82.15
2024-03-16T05:07:01.628Z,82.08
2024-03-16T05:09:28.359Z,82.06
2024-03-16T05:11:55.784Z,81.91
2024-03-16T05:14:22.487Z,81.83
2024-03-16T05:16:48.880Z,82.04
2024-03-16T05:19:15.416Z,81.75
2024-03-16T05:21:43.606Z,81.69
2024-03-16T05:24:10.374Z,81.49
2024-03-16T05:26:37.832Z,81.45
2024-03-16T05:29:04.330Z,81.28
2024-03-16T05:31:32.807Z,81.45
2024-03-16T05:33:59.355Z,81.28
2024-03-16T05:36:25.826Z,81.53
2024-03-16T05:38:53.257Z,81.39
2024-03-16T05:41:19.761Z,81.66
2024-03-16T05:43:47.066Z,81.56
2024-03-16T05:46:13.853Z,81.62
2024-03-16T05:48:40.379Z,81.66
2024-03-16T05:51:07.388Z,81.74
2024-03-16T05:53:33.879Z,81.89
2024-03-16T05:56:00.401Z,81.87
2024-03-16T05:58:27.060Z,81.56
2024-03-16T06:00:53.832Z,81.35
2024-03-16T06:03:20.611Z,81.68
2024-03-16T06:05:48.590Z,81.48
2024-03-16T06:08:15.290Z,81.39
2024-03-16T06:10:42.626Z,81.41
2024-03-16T06:13:11.594Z,81.16
2024-03-16T06:15:40.303Z,81.28
2024-03-16T06:18:07.058Z,81.06
2024-03-16T06:20:33.576Z,81.01
2024-03-16T06:22:59.972Z,80.96
2024-03-16T06:25:26.969Z,80.87
2024-03-16T06:27:55.341Z,80.55
2024-03-16T06:30:31.661Z,80.58
2024-03-16T06:33:09.636Z,80.41
2024-03-16T06:35:42.656Z,80.45
2024-03-16T06:38:09.694Z,80.40
2024-03-16T06:40:36.338Z,80.12
2024-03-16T06:43:03.613Z,80.08
2024-03-16T06:45:30.132Z,79.75
2024-03-16T06:47:56.805Z,79.81
2024-03-16T06:50:23.704Z,79.46
2024-03-16T06:52:50.383Z,79.39
2024-03-16T06:55:19.612Z,79.26
2024-03-16T06:57:46.711Z,78.89
2024-03-16T07:00:15.272Z,78.75
2024-03-16T07:02:41.736Z,78.48
2024-03-16T07:05:10.881Z,78.11
2024-03-16T07:07:37.410Z,77.77
2024-03-16T07:10:10.964Z,77.55
2024-03-16T07:12:37.595Z,77.22
2024-03-16T07:15:07.135Z,77.14
2024-03-16T07:17:33.704Z,77.26
2024-03-16T07:20:00.362Z,77.18
2024-03-16T07:22:28.222Z,77.34
2024-03-16T07:24:55.648Z,77.15
2024-03-16T07:27:22.170Z,76.67
2024-03-16T07:29:48.562Z,76.56
2024-03-16T07:32:14.956Z,76.42
2024-03-16T07:34:41.380Z,76.53
2024-03-16T07:37:08.022Z,76.05
2024-03-16T07:39:34.492Z,76.35
2024-03-16T07:42:00.973Z,76.11
2024-03-16T07:44:27.640Z,76.19
2024-03-16T07:46:54.923Z,76.20
2024-03-16T07:49:21.617Z,76.16
2024-03-16T07:51:48.243Z,76.25
2024-03-16T07:54:16.283Z,76.10
2024-03-16T07:56:42.746Z,75.95
2024-03-16T07:59:10.775Z,76.00
2024-03-16T08:01:37.757Z,76.02
2024-03-16T08:04:04.893Z,75.63
2024-03-16T08:06:31.469Z,75.63
2024-03-16T08:08:58.147Z,75.45
2024-03-16T08:11:24.862Z,75.15
2024-03-16T08:13:51.490Z,74.69
2024-03-16T08:16:18.012Z,74.17
2024-03-16T08:18:46.897Z,74.04
2024-03-16T08:21:15.557Z,73.64
2024-03-16T08:23:42.228Z,73.28
2024-03-16T08:26:10.177Z,73.11
2024-03-16T08:28:36.780Z,72.84
2024-03-16T08:31:03.726Z,72.55
2024-03-16T08:33:30.714Z,72.63
2024-03-16T08:35:57.290Z,72.44
2024-03-16T08:38:25.473Z,72.22
2024-03-16T08:40:51.845Z,72.22
2024-03-16T08:43:18.438Z,72.13
2024-03-16T08:45:45.219Z,71.81
2024-03-16T08:48:11.673Z,71.33
2024-03-16T08:50:38.991Z,71.25
2024-03-16T08:53:05.475Z,70.67
2024-03-16T08:55:32.086Z,70.62
2024-03-16T08:57:58.749Z,69.82
2024-03-16T09:00:26.207Z,69.76
2024-03-16T09:02:53.659Z,69.75
2024-03-16T09:05:21.989Z,69.09
2024-03-16T09:07:48.883Z,68.80
2024-03-16T09:10:16.090Z,68.40
2024-03-16T09:12:42.607Z,68.12
2024-03-16T09:15:09.788Z,67.08
2024-03-16T09:17:37.498Z,66.88
2024-03-16T09:20:11.897Z,66.47
2024-03-16T09:22:38.923Z,65.51
2024-03-16T09:25:06.792Z,65.03
2024-03-16T09:27:36.624Z,64.40
2024-03-16T09:30:09.756Z,63.45
2024-03-16T09:32:37.635Z,62.23
2024-03-16T09:35:08.524Z,61.89
2024-03-16T09:37:35.360Z,62.45
2024-03-16T09:40:02.028Z,62.36
2024-03-16T09:42:29.627Z,61.80
2024-03-16T09:44:58.396Z,61.16
2024-03-16T09:47:26.693Z,59.97
2024-03-16T09:49:53.227Z,60.19
2024-03-16T09:52:22.467Z,59.21
2024-03-16T09:54:48.964Z,58.21
2024-03-16T09:57:16.858Z,58.50
2024-03-16T09:59:49.037Z,59.94
2024-03-16T10:02:24.881Z,61.13
2024-03-16T10:04:51.585Z,61.67
2024-03-16T10:07:18.173Z,60.97
2024-03-16T10:09:54.244Z,60.59
2024-03-16T10:12:22.493Z,60.01
2024-03-16T10:15:10.373Z,60.58
2024-03-16T10:17:40.225Z,61.10
2024-03-16T10:20:16.679Z,61.55
2024-03-16T10:22:47.041Z,62.19
2024-03-16T10:25:15.008Z,63.24
2024-03-16T10:27:41.648Z,66.09
2024-03-16T10:30:12.005Z,66.65
2024-03-16T10:32:42.311Z,68.54
2024-03-16T10:35:15.367Z,69.50
2024-03-16T10:37:43.497Z,70.70
2024-03-16T10:40:17.676Z,71.84
2024-03-16T10:42:45.500Z,73.01
2024-03-16T10:45:17.550Z,73.02
2024-03-16T10:47:51.625Z,72.76
2024-03-16T10:50:21.093Z,72.38
2024-03-16T10:52:49.289Z,71.76
2024-03-16T10:55:23.086Z,68.63
2024-03-16T10:57:50.521Z,62.06
2024-03-16T11:00:36.518Z,55.12
2024-03-16T11:03:13.308Z,49.56
2024-03-16T11:05:49.347Z,44.66
2024-03-16T11:08:16.012Z,42.29
2024-03-16T11:10:44.093Z,41.21
2024-03-16T11:13:18.614Z,40.33
2024-03-16T11:15:47.968Z,40.65
2024-03-16T11:18:17.377Z,40.47
2024-03-16T11:20:56.994Z,41.48
2024-03-16T11:23:33.332Z,42.36
2024-03-16T11:26:28.588Z,43.29
2024-03-16T11:29:01.034Z,44.21
2024-03-16T11:31:39.689Z,45.14
2024-03-16T11:34:12.290Z,45.81
2024-03-16T11:36:48.358Z,46.02
2024-03-16T11:39:17.638Z,46.52
2024-03-16T11:41:46.103Z,47.16
2024-03-16T11:44:17.376Z,47.19
2024-03-16T11:46:46.854Z,47.29
2024-03-16T11:49:16.016Z,46.82
2024-03-16T11:51:43.535Z,46.41
2024-03-16T11:54:11.416Z,46.50
2024-03-16T11:56:38.348Z,45.73
2024-03-16T11:59:05.364Z,44.40
2024-03-16T12:01:35.820Z,43.15
2024-03-16T12:04:02.828Z,42.97
2024-03-16T12:06:29.958Z,43.53
2024-03-16T12:08:56.654Z,43.76
2024-03-16T12:11:24.495Z,40.08
2024-03-16T12:13:53.817Z,38.31
2024-03-16T12:16:21.652Z,38.07
2024-03-16T12:18:48.347Z,38.62
2024-03-16T12:21:14.846Z,38.35
2024-03-16T12:23:41.733Z,37.07
2024-03-16T12:26:10.753Z,36.55
2024-03-16T12:28:37.366Z,37.02
2024-03-16T12:31:04.031Z,36.77
2024-03-16T12:33:33.051Z,36.47
2024-03-16T12:35:59.487Z,36.87
2024-03-16T12:38:26.103Z,37.72
2024-03-16T12:40:52.654Z,37.25
2024-03-16T12:43:20.233Z,35.12
2024-03-16T12:45:46.706Z,31.01
2024-03-16T12:48:13.447Z,26.39
2024-03-16T12:50:39.859Z,25.46
2024-03-16T12:53:08.930Z,24.53
2024-03-16T12:55:35.605Z,23.01
2024-03-16T12:58:02.538Z,22.39
2024-03-16T13:00:28.921Z,21.16
2024-03-16T13:02:55.340Z,21.83
2024-03-16T13:05:22.090Z,20.91
2024-03-16T13:07:49.170Z,19.48
2024-03-16T13:10:15.714Z,19.56
2024-03-16T13:12:42.140Z,18.88
2024-03-16T13:15:09.863Z,18.88
2024-03-16T13:17:36.539Z,19.64
2024-03-16T13:20:04.252Z,20.48
2024-03-16T13:22:30.620Z,21.47
2024-03-16T13:24:56.949Z,22.23
2024-03-16T13:27:23.592Z,23.59
2024-03-16T13:29:49.920Z,24.65
2024-03-16T13:32:16.351Z,25.69
2024-03-16T13:34:42.850Z,27.14
2024-03-16T13:37:09.278Z,28.22
2024-03-16T13:39:38.552Z,29.37
2024-03-16T13:42:07.075Z,30.10
2024-03-16T13:44:35.110Z,30.96
2024-03-16T13:47:03.416Z,31.26
2024-03-16T13:49:32.458Z,31.75
2024-03-16T13:52:00.470Z,32.29
2024-03-16T13:54:26.956Z,32.79
2024-03-16T13:56:53.583Z,33.44
2024-03-16T13:59:20.364Z,33.60
2024-03-16T14:01:47.225Z,33.78
2024-03-16T14:04:13.742Z,34.20
2024-03-16T14:06:40.350Z,34.77
2024-03-16T14:09:07.795Z,35.12
2024-03-16T14:11:35.526Z,35.61
2024-03-16T14:14:02.184Z,35.25
2024-03-16T14:16:28.821Z,35.24
2024-03-16T14:18:55.425Z,35.22
2024-03-16T14:21:21.956Z,35.41
2024-03-16T14:23:49.237Z,35.35
2024-03-16T14:26:15.649Z,35.53
2024-03-16T14:28:42.425Z,36.04
2024-03-16T14:31:10.152Z,36.29
2024-03-16T14:33:39.358Z,35.48
2024-03-16T14:36:07.016Z,33.29
2024-03-16T14:38:34.860Z,32.56
2024-03-16T14:41:01.804Z,33.13
2024-03-16T14:43:29.116Z,32.54
2024-03-16T14:45:55.606Z,32.23
2024-03-16T14:48:22.070Z,32.58
2024-03-16T14:50:51.882Z,32.93
2024-03-16T14:53:18.490Z,33.50
2024-03-16T14:55:45.337Z,34.07
2024-03-16T14:58:12.250Z,34.49
2024-03-16T15:00:39.254Z,35.30
2024-03-16T15:03:07.291Z,35.95
2024-03-16T15:05:35.811Z,36.77
2024-03-16T15:08:02.730Z,37.13
2024-03-16T15:10:29.230Z,37.77
2024-03-16T15:12:55.741Z,38.48
2024-03-16T15:15:23.465Z,38.74
2024-03-16T15:17:50.163Z,39.09
2024-03-16T15:20:16.680Z,39.55
2024-03-16T15:22:44.871Z,39.89
2024-03-16T15:25:19.808Z,40.03
2024-03-16T15:27:49.163Z,39.75
2024-03-16T15:30:15.697Z,38.94
2024-03-16T15:32:42.118Z,38.09
2024-03-16T15:35:10.983Z,37.72
2024-03-16T15:37:38.475Z,37.81
2024-03-16T15:40:05.641Z,37.99
2024-03-16T15:42:33.087Z,38.42
2024-03-16T15:45:00.252Z,38.86
2024-03-16T15:47:30.708Z,39.05
2024-03-16T15:49:57.202Z,39.44
2024-03-16T15:52:23.722Z,39.94
2024-03-16T15:54:50.102Z,40.57
2024-03-16T15:57:17.187Z,41.43
2024-03-16T15:59:43.519Z,41.94
2024-03-16T16:02:10.661Z,42.77
2024-03-16T16:04:37.119Z,43.05
2024-03-16T16:07:04.502Z,43.55
2024-03-16T16:09:34.445Z,43.84
2024-03-16T16:12:00.884Z,43.66
2024-03-16T16:14:27.360Z,43.74
2024-03-16T16:16:53.804Z,43.66
2024-03-16T16:19:20.176Z,43.79
2024-03-16T16:21:46.633Z,43.95
2024-03-16T16:24:13.586Z,44.23
2024-03-16T16:26:42.154Z,44.58
2024-03-16T16:29:11.430Z,44.88
2024-03-16T16:31:37.901Z,45.48
2024-03-16T16:34:05.846Z,45.98
2024-03-16T16:36:35.183Z,46.71
2024-03-16T16:39:01.596Z,46.73
2024-03-16T16:41:27.989Z,47.16
2024-03-16T16:43:54.660Z,47.13
2024-03-16T16:46:21.206Z,47.23
2024-03-16T16:48:48.038Z,47.84
2024-03-16T16:51:14.505Z,48.00
2024-03-16T16:53:40.960Z,48.31
2024-03-16T16:56:07.331Z,48.46
2024-03-16T16:58:33.699Z,48.29
2024-03-16T17:01:02.888Z,48.34
2024-03-16T17:03:30.661Z,48.26
2024-03-16T17:06:00.234Z,48.19
2024-03-16T17:08:26.776Z,48.00
2024-03-16T17:10:54.332Z,47.99
2024-03-16T17:13:20.894Z,47.91
2024-03-16T17:15:47.529Z,47.86
2024-03-16T17:18:14.061Z,47.94
2024-03-16T17:20:41.853Z,47.80
2024-03-16T17:23:08.273Z,48.27
2024-03-16T17:25:35.070Z,48.40
2024-03-16T17:28:01.736Z,48.33
2024-03-16T17:30:28.114Z,48.45
2024-03-16T17:32:54.521Z,48.70
2024-03-16T17:35:21.017Z,48.69
2024-03-16T17:37:47.746Z,48.64
2024-03-16T17:40:14.843Z,48.91
2024-03-16T17:42:41.199Z,48.82
2024-03-16T17:45:08.202Z,48.79
2024-03-16T17:47:34.878Z,48.96
2024-03-16T17:50:01.505Z,49.40
2024-03-16T17:52:27.953Z,49.37
2024-03-16T17:54:55.102Z,49.52
2024-03-16T17:57:21.588Z,49.49
2024-03-16T17:59:48.279Z,50.03
2024-03-16T18:02:14.977Z,50.00
2024-03-16T18:04:41.682Z,50.11
2024-03-16T18:07:10.584Z,50.26
2024-03-16T18:09:37.131Z,50.46
2024-03-16T18:12:08.223Z,50.41
2024-03-16T18:14:35.709Z,50.65
2024-03-16T18:17:02.297Z,50.93
2024-03-16T18:19:31.335Z,51.24
2024-03-16T18:21:58.003Z,51.44
2024-03-16T18:24:25.021Z,51.50
2024-03-16T18:26:51.362Z,51.66
2024-03-16T18:29:18.257Z,51.80
2024-03-16T18:31:45.262Z,51.77
2024-03-16T18:34:11.824Z,51.67
2024-03-16T18:36:38.315Z,52.16
2024-03-16T18:39:10.562Z,52.46
2024-03-16T18:41:40.004Z,52.51
2024-03-16T18:44:08.641Z,52.59
2024-03-16T18:46:36.703Z,53.10
2024-03-16T18:49:07.265Z,53.22
2024-03-16T18:51:35.219Z,53.13
2024-03-16T18:54:02.341Z,53.35
2024-03-16T18:56:29.081Z,53.34
2024-03-16T18:58:56.074Z,53.57
2024-03-16T19:01:22.455Z,53.32
2024-03-16T19:03:49.774Z,52.77
2024-03-16T19:06:16.404Z,52.28
2024-03-16T19:08:43.114Z,51.61
2024-03-16T19:11:14.117Z,51.02
2024-03-16T19:13:40.761Z,50.45
2024-03-16T19:16:07.345Z,50.29
2024-03-16T19:18:34.698Z,50.15
2024-03-16T19:21:01.081Z,49.83
2024-03-16T19:23:27.458Z,50.28
2024-03-16T19:25:54.406Z,50.03
2024-03-16T19:28:21.804Z,49.79
2024-03-16T19:30:48.242Z,49.61
2024-03-16T19:33:14.689Z,49.89
2024-03-16T19:35:41.114Z,50.04
2024-03-16T19:38:09.529Z,50.02
2024-03-16T19:40:36.442Z,50.10
2024-03-16T19:43:06.235Z,50.33
2024-03-16T19:45:32.944Z,50.31
2024-03-16T19:47:59.311Z,50.17
2024-03-16T19:50:26.439Z,50.40
2024-03-16T19:52:53.524Z,50.60
2024-03-16T19:55:21.532Z,50.74
2024-03-16T19:57:47.977Z,50.94
2024-03-16T20:00:20.336Z,50.74
2024-03-16T20:02:48.008Z,50.60
2024-03-16T20:05:15.034Z,50.45
2024-03-16T20:07:42.149Z,50.27
2024-03-16T20:10:09.720Z,50.75
2024-03-16T20:12:36.124Z,50.18
2024-03-16T20:15:05.260Z,49.82
2024-03-16T20:17:33.164Z,49.67
2024-03-16T20:20:03.092Z,49.46
2024-03-16T20:22:29.733Z,49.39
2024-03-16T20:24:56.174Z,49.44
2024-03-16T20:27:22.594Z,49.35
2024-03-16T20:29:49.242Z,49.44
2024-03-16T20:32:15.717Z,49.39
2024-03-16T20:34:42.825Z,49.53
2024-03-16T20:37:09.187Z,49.51
2024-03-16T20:39:36.082Z,49.60
2024-03-16T20:42:02.507Z,50.01
2024-03-16T20:44:28.909Z,49.99
2024-03-16T20:46:55.347Z,49.88
2024-03-16T20:49:21.885Z,50.24
2024-03-16T20:51:48.619Z,50.22
2024-03-16T20:54:15.118Z,50.17
2024-03-16T20:56:43.355Z,50.25
2024-03-16T20:59:09.892Z,50.46
2024-03-16T21:01:36.400Z,50.61
2024-03-16T21:04:04.872Z,50.85
2024-03-16T21:06:31.850Z,50.56
2024-03-16T21:08:58.304Z,50.22
2024-03-16T21:11:29.015Z,50.61
2024-03-16T21:13:56.436Z,50.35
2024-03-16T21:16:22.940Z,50.65
2024-03-16T21:18:49.760Z,50.67
2024-03-16T21:21:16.183Z,50.87
2024-03-16T21:23:43.409Z,50.30
2024-03-16T21:26:11.314Z,50.66
2024-03-16T21:28:38.592Z,50.52
2024-03-16T21:31:06.610Z,50.96
2024-03-16T21:33:32.968Z,51.22
2024-03-16T21:35:59.632Z,51.34
2024-03-16T21:38:26.089Z,50.86
2024-03-16T21:40:52.589Z,51.26
2024-03-16T21:43:19.205Z,51.37
2024-03-16T21:45:45.625Z,51.62
2024-03-16T21:48:13.429Z,51.73
2024-03-16T21:50:42.251Z,51.50
2024-03-16T21:53:09.525Z,51.71
2024-03-16T21:55:35.903Z,51.49
2024-03-16T21:58:02.329Z,50.88
2024-03-16T22:00:28.827Z,51.36
2024-03-16T22:02:55.332Z,50.86
2024-03-16T22:05:21.788Z,51.00
2024-03-16T22:07:48.486Z,51.07
2024-03-16T22:10:14.840Z,51.22
2024-03-16T22:12:41.673Z,51.20
2024-03-16T22:15:09.121Z,51.15
2024-03-16T22:17:36.438Z,50.97
2024-03-16T22:20:03.719Z,51.03
2024-03-16T22:22:30.789Z,50.86
2024-03-16T22:24:58.452Z,51.36
2024-03-16T22:27:24.904Z,51.30
2024-03-16T22:29:51.545Z,51.39
2024-03-16T22:32:19.183Z,51.02
2024-03-16T22:34:46.248Z,50.53
2024-03-16T22:37:13.338Z,50.50
2024-03-16T22:39:39.848Z,50.70
2024-03-16T22:42:07.100Z,51.04
2024-03-16T22:44:34.243Z,51.37
2024-03-16T22:47:01.531Z,51.43
2024-03-16T22:49:28.002Z,51.73
2024-03-16T22:51:54.573Z,51.10
2024-03-16T22:54:21.330Z,50.51
2024-03-16T22:56:48.220Z,50.17
2024-03-16T22:59:14.710Z,50.21
2024-03-16T23:01:41.790Z,50.55
2024-03-16T23:04:08.697Z,50.90
2024-03-16T23:06:35.141Z,51.17
2024-03-16T23:09:01.575Z,51.45
2024-03-16T23:11:28.382Z,51.72
2024-03-16T23:13:56.142Z,52.10
2024-03-16T23:16:22.763Z,52.22
2024-03-16T23:18:50.407Z,52.56
2024-03-16T23:21:16.799Z,52.30
2024-03-16T23:23:46.825Z,52.34
2024-03-16T23:26:16.354Z,52.30
2024-03-16T23:28:43.536Z,52.18
2024-03-16T23:31:10.227Z,52.09
2024-03-16T23:33:37.603Z,52.17
2024-03-16T23:36:04.556Z,51.77
2024-03-16T23:38:32.487Z,51.60
2024-03-16T23:41:03.681Z,51.86
2024-03-16T23:43:31.536Z,51.69
2024-03-16T23:45:58.297Z,51.52
2024-03-16T23:48:24.795Z,50.72
2024-03-16T23:50:51.393Z,50.92
2024-03-16T23:53:18.910Z,51.84
2024-03-16T23:55:45.385Z,52.62
2024-03-16T23:58:13.198Z,52.61
